Impacts METAR Board
IDs:

KSFO - San Francisco Intl, CA, US

Updated at: 2100 UTC 21 Sep 2021
Potential Impact None Slight Moderate High
Time 21/09Z 21/10Z 21/11Z 21/12Z 21/13Z 21/14Z 21/15Z 21/16Z 21/17Z 21/18Z 21/19Z 21/20Z 21/21Z
Temp69 68 68 63 63 62 65 70 71 73 75 81 81
Dewpt54 59 59 50 51 52 56 56 58 59 59 51 63
Altim29.97 29.97 29.98 29.99 30.00 30.03 30.04 30.05 30.07 30.08 30.07 30.06 30.04
VIS10 10 10 10 10 10 10 10 10 10 10 10 10
CIG-- -- -- -- -- -- -- -- -- -- -- -- --
CoverFEWFEWFEWFEWCLRCLRCLRCLRCLRCLRCLRFEWFEW
FltCatVFRVFRVFRVFRVFRVFRVFRVFRVFRVFRVFRVFRVFR
WX--------------------------
WDir2010200000040307000
WSpd6 4 4 0 0 0 0 0 3 3 3 0 5
WGst-- -- -- -- -- -- -- -- -- -- -- -- --
Raw hourly METARs
KSFO 210856Z 02006KT 10SM FEW200 21/12 A2997 RMK AO2 SLP148 T02060122 53004
KSFO 210956Z 01004KT 10SM FEW200 20/15 A2997 RMK AO2 SLP150 T02000150
KSFO 211056Z 02004KT 10SM FEW200 20/15 A2998 RMK AO2 SLP150 T02000150
KSFO 211156Z 00000KT 10SM FEW200 17/10 A2999 RMK AO2 SLP155 T01720100 10222 20172 53006
KSFO 211256Z 00000KT 10SM CLR 17/11 A3000 RMK AO2 SLP160 T01720106
KSFO 211356Z 00000KT 10SM CLR 17/11 A3003 RMK AO2 SLP167 T01670111
KSFO 211456Z 00000KT 10SM CLR 18/13 A3004 RMK AO2 SLP173 T01830133 53018
KSFO 211556Z 00000KT 10SM CLR 21/13 A3005 RMK AO2 SLP177 T02110133
KSFO 211656Z 04003KT 10SM CLR 22/14 A3007 RMK AO2 SLP183 T02170144
KSFO 211756Z 03003KT 10SM CLR 23/15 A3008 RMK AO2 SLP184 T02280150 10228 20167 51012
KSFO 211856Z 07003KT 10SM CLR 24/15 A3007 RMK AO2 SLP182 T02390150
KSFO 211956Z 00000KT 10SM FEW200 27/11 A3006 RMK AO2 SLP178 T02720106
KSFO 212056Z VRB05KT 10SM FEW200 27/17 A3004 RMK AO2 SLP173 T02720172 58011



Page loaded:  21:06 UTC  |   02:06 PM Pacific  |   03:06 PM Mountain  |   04:06 PM Central  |   05:06 PM Eastern

 

ADVISORIES

FORECASTS

FORECASTS

OBSERVATIONS

USER TOOLS

ABOUT US